createdAt,value
2023-02-01T00:01:25.498Z,101527.31
2023-02-01T00:03:53.423Z,101528.66
2023-02-01T00:06:21.611Z,101531.13
2023-02-01T00:08:49.652Z,101540.97
2023-02-01T00:11:17.885Z,101521.16
2023-02-01T00:13:46.350Z,101535.44
2023-02-01T00:16:17.287Z,101524.00
2023-02-01T00:18:47.620Z,101532.47
2023-02-01T00:21:17.027Z,101513.78
2023-02-01T00:23:45.255Z,101516.25
2023-02-01T00:26:16.433Z,101534.91
2023-02-01T00:28:44.469Z,101502.72
2023-02-01T00:31:12.839Z,101522.50
2023-02-01T00:33:40.848Z,101524.47
2023-02-01T00:36:11.550Z,101506.91
2023-02-01T00:38:40.217Z,101517.09
2023-02-01T00:41:11.840Z,101527.69
2023-02-01T00:43:41.244Z,101509.97
2023-02-01T00:46:10.978Z,101521.28
2023-02-01T00:48:39.193Z,101510.09
2023-02-01T00:51:09.739Z,101515.38
2023-02-01T00:53:39.617Z,101517.81
2023-02-01T00:56:08.666Z,101510.31
2023-02-01T00:58:37.123Z,101503.69
2023-02-01T01:01:08.245Z,101506.41
2023-02-01T01:03:39.193Z,101503.31
2023-02-01T01:06:10.111Z,101503.56
2023-02-01T01:08:40.669Z,101515.97
2023-02-01T01:11:10.166Z,101502.84
2023-02-01T01:13:38.833Z,101496.06
2023-02-01T01:16:09.398Z,101487.56
2023-02-01T01:18:37.785Z,101486.59
2023-02-01T01:21:07.010Z,101478.81
2023-02-01T01:23:35.959Z,101490.53
2023-02-01T01:26:09.078Z,101471.59
2023-02-01T01:28:38.075Z,101466.66
2023-02-01T01:31:06.441Z,101471.25
2023-02-01T01:33:34.879Z,101458.06
2023-02-01T01:36:03.169Z,101447.56
2023-02-01T01:38:31.165Z,101451.66
2023-02-01T01:41:00.007Z,101456.72
2023-02-01T01:43:52.079Z,101450.44
2023-02-01T01:46:22.480Z,101432.97
2023-02-01T01:48:54.450Z,101445.47
2023-02-01T01:51:25.664Z,101443.19
2023-02-01T01:54:01.257Z,101440.00
2023-02-01T01:56:31.966Z,101444.28
2023-02-01T01:59:02.879Z,101432.50
2023-02-01T02:01:31.092Z,101425.09
2023-02-01T02:04:00.524Z,101415.03
2023-02-01T02:06:46.492Z,101435.31
2023-02-01T02:09:14.947Z,101429.28
2023-02-01T02:11:43.180Z,101434.69
2023-02-01T02:14:16.536Z,101413.16
2023-02-01T02:17:02.694Z,101413.56
2023-02-01T02:20:06.984Z,101409.00
2023-02-01T02:23:08.741Z,101417.38
2023-02-01T02:26:18.690Z,101418.63
2023-02-01T02:29:52.956Z,101397.59
2023-02-01T02:32:55.085Z,101396.09
2023-02-01T02:35:32.592Z,101389.97
2023-02-01T02:38:13.566Z,101390.56
2023-02-01T02:40:50.474Z,101374.09
2023-02-01T02:43:41.619Z,101365.63
2023-02-01T02:46:37.516Z,101388.25
2023-02-01T02:49:13.568Z,101351.84
2023-02-01T02:52:05.148Z,101364.50
2023-02-01T02:54:49.745Z,101352.22
2023-02-01T02:57:42.264Z,101362.94
2023-02-01T03:00:31.924Z,101348.19
2023-02-01T03:03:17.869Z,101352.94
2023-02-01T03:05:49.180Z,101356.41
2023-02-01T03:08:20.853Z,101349.88
2023-02-01T03:11:00.112Z,101342.88
2023-02-01T03:13:38.507Z,101355.28
2023-02-01T03:16:14.545Z,101355.44
2023-02-01T03:18:51.133Z,101358.13
2023-02-01T03:21:24.121Z,101349.66
2023-02-01T03:23:58.499Z,101329.72
2023-02-01T03:26:31.674Z,101320.63
2023-02-01T03:29:06.015Z,101348.75
2023-02-01T03:31:34.906Z,101338.78
2023-02-01T03:34:04.638Z,101314.09
2023-02-01T03:36:39.543Z,101319.84
2023-02-01T03:39:17.456Z,101314.44
2023-02-01T03:41:52.331Z,101316.75
2023-02-01T03:44:25.197Z,101317.84
2023-02-01T03:46:57.806Z,101308.53
2023-02-01T03:49:31.256Z,101304.84
2023-02-01T03:52:01.634Z,101301.38
2023-02-01T03:54:32.701Z,101308.94
2023-02-01T03:57:07.544Z,101311.97
2023-02-01T03:59:38.729Z,101308.16
2023-02-01T04:02:06.941Z,101298.53
2023-02-01T04:04:36.039Z,101305.78
2023-02-01T04:07:05.301Z,101308.47
2023-02-01T04:09:34.801Z,101296.81
2023-02-01T04:12:03.427Z,101302.09
2023-02-01T04:14:31.500Z,101314.13
2023-02-01T04:16:59.687Z,101320.97
2023-02-01T04:19:27.916Z,101331.19
2023-02-01T04:21:55.955Z,101319.19
2023-02-01T04:24:23.995Z,101300.25
2023-02-01T04:26:53.544Z,101308.22
2023-02-01T04:29:21.619Z,101316.91
2023-02-01T04:31:50.360Z,101316.63
2023-02-01T04:34:18.684Z,101329.47
2023-02-01T04:36:47.438Z,101328.03
2023-02-01T04:39:15.632Z,101314.66
2023-02-01T04:41:43.769Z,101316.97
2023-02-01T04:44:16.328Z,101307.50
2023-02-01T04:46:44.557Z,101296.78
2023-02-01T04:49:13.714Z,101298.75
2023-02-01T04:51:42.718Z,101306.69
2023-02-01T04:54:13.350Z,101296.16
2023-02-01T04:56:42.038Z,101298.38
2023-02-01T04:59:15.400Z,101300.31
2023-02-01T05:01:44.367Z,101284.09
2023-02-01T05:04:13.612Z,101298.66
2023-02-01T05:06:41.815Z,101275.19
2023-02-01T05:09:09.917Z,101298.53
2023-02-01T05:11:55.207Z,101284.88
2023-02-01T05:14:24.840Z,101292.38
2023-02-01T05:16:53.545Z,101291.41
2023-02-01T05:19:22.827Z,101287.09
2023-02-01T05:21:50.922Z,101293.25
2023-02-01T05:24:21.615Z,101297.16
2023-02-01T05:26:50.889Z,101297.16
2023-02-01T05:29:20.013Z,101311.28
2023-02-01T05:31:50.306Z,101309.97
2023-02-01T05:34:18.534Z,101333.28
2023-02-01T05:36:46.682Z,101310.31
2023-02-01T05:39:15.026Z,101315.47
2023-02-01T05:41:43.501Z,101304.75
2023-02-01T05:44:13.412Z,101346.44
2023-02-01T05:46:41.734Z,101349.88
2023-02-01T05:49:11.698Z,101324.41
2023-02-01T05:51:39.701Z,101309.88
2023-02-01T05:54:08.175Z,101318.50
2023-02-01T05:56:36.105Z,101327.84
2023-02-01T05:59:04.691Z,101312.75
2023-02-01T06:01:32.770Z,101316.69
2023-02-01T06:04:01.013Z,101310.56
2023-02-01T06:06:31.028Z,101305.03
2023-02-01T06:08:59.641Z,101304.41
2023-02-01T06:11:33.081Z,101297.34
2023-02-01T06:14:01.236Z,101320.75
2023-02-01T06:16:29.973Z,101306.84
2023-02-01T06:18:59.207Z,101314.50
2023-02-01T06:21:27.594Z,101320.28
2023-02-01T06:23:58.783Z,101307.25
2023-02-01T06:26:26.981Z,101306.75
2023-02-01T06:28:56.275Z,101309.56
2023-02-01T06:31:26.407Z,101320.53
2023-02-01T06:33:55.109Z,101320.00
2023-02-01T06:36:23.749Z,101314.72
2023-02-01T06:38:52.222Z,101308.94
2023-02-01T06:41:21.982Z,101308.56
2023-02-01T06:43:50.519Z,101304.75
2023-02-01T06:46:18.764Z,101309.44
2023-02-01T06:48:47.504Z,101309.03
2023-02-01T06:51:22.701Z,101316.94
2023-02-01T06:53:51.374Z,101327.00
2023-02-01T06:56:20.638Z,101327.69
2023-02-01T06:58:50.328Z,101329.97
2023-02-01T07:01:19.123Z,101340.59
2023-02-01T07:03:50.935Z,101357.63
2023-02-01T07:06:19.498Z,101322.44
2023-02-01T07:08:47.663Z,101338.94
2023-02-01T07:11:17.290Z,101339.81
2023-02-01T07:13:45.839Z,101341.38
2023-02-01T07:16:17.944Z,101348.13
2023-02-01T07:18:46.964Z,101345.94
2023-02-01T07:21:15.801Z,101340.38
2023-02-01T07:23:43.893Z,101340.72
2023-02-01T07:26:14.326Z,101340.63
2023-02-01T07:28:43.212Z,101336.34
2023-02-01T07:31:14.538Z,101348.41
2023-02-01T07:33:44.823Z,101330.22
2023-02-01T07:36:15.372Z,101336.78
2023-02-01T07:38:43.694Z,101336.53
2023-02-01T07:41:12.744Z,101336.16
2023-02-01T07:43:41.087Z,101340.81
2023-02-01T07:46:09.238Z,101351.59
2023-02-01T07:48:38.302Z,101353.28
2023-02-01T07:51:11.318Z,101351.03
2023-02-01T07:53:39.895Z,101345.66
2023-02-01T07:56:13.652Z,101364.25
2023-02-01T07:58:41.723Z,101354.66
2023-02-01T08:01:21.520Z,101350.56
2023-02-01T08:03:52.538Z,101355.13
2023-02-01T08:06:25.865Z,101355.09
2023-02-01T08:08:54.914Z,101355.38
2023-02-01T08:11:25.259Z,101369.66
2023-02-01T08:13:55.751Z,101361.66
2023-02-01T08:16:25.852Z,101351.88
2023-02-01T08:18:55.215Z,101362.50
2023-02-01T08:21:26.559Z,101345.25
2023-02-01T08:23:57.234Z,101350.41
2023-02-01T08:26:27.696Z,101355.69
2023-02-01T08:28:59.197Z,101353.25
2023-02-01T08:31:30.227Z,101356.69
2023-02-01T08:34:00.659Z,101339.72
2023-02-01T08:36:31.399Z,101341.31
2023-02-01T08:39:00.291Z,101347.88
2023-02-01T08:41:31.082Z,101339.03
2023-02-01T08:44:00.115Z,101339.03
2023-02-01T08:46:29.531Z,101329.44
2023-02-01T08:48:58.580Z,101349.53
2023-02-01T08:51:26.749Z,101335.81
2023-02-01T08:53:56.162Z,101328.41
2023-02-01T08:56:25.016Z,101322.53
2023-02-01T08:58:53.957Z,101317.97
2023-02-01T09:01:22.298Z,101329.03
2023-02-01T09:03:51.149Z,101315.16
2023-02-01T09:06:20.002Z,101303.19
2023-02-01T09:08:48.801Z,101306.16
2023-02-01T09:11:20.311Z,101297.69
2023-02-01T09:13:50.050Z,101295.13
2023-02-01T09:16:18.904Z,101301.13
2023-02-01T09:18:56.070Z,101284.72
2023-02-01T09:21:31.207Z,101311.91
2023-02-01T09:23:59.928Z,101295.06
2023-02-01T09:26:32.709Z,101288.84
2023-02-01T09:29:03.141Z,101281.41
2023-02-01T09:31:32.329Z,101281.94
2023-02-01T09:34:00.793Z,101276.19
2023-02-01T09:36:31.108Z,101259.53
2023-02-01T09:38:59.632Z,101256.81
2023-02-01T09:41:40.225Z,101255.44
2023-02-01T09:44:21.339Z,101258.66
2023-02-01T09:46:49.666Z,101257.19
2023-02-01T09:49:22.891Z,101243.75
2023-02-01T09:51:53.441Z,101243.16
2023-02-01T09:54:25.753Z,101240.00
2023-02-01T09:56:59.015Z,101228.53
2023-02-01T09:59:34.665Z,101222.97
2023-02-01T10:02:05.411Z,101232.22
2023-02-01T10:04:34.646Z,101242.25
2023-02-01T10:07:13.761Z,101228.63
2023-02-01T10:10:01.220Z,101213.03
2023-02-01T10:12:51.506Z,101208.84
2023-02-01T10:15:40.697Z,101254.94
2023-02-01T10:18:36.544Z,101242.53
2023-02-01T10:21:13.223Z,101225.22
2023-02-01T10:24:05.994Z,101209.97
2023-02-01T10:26:42.952Z,101216.97
2023-02-01T10:29:18.044Z,101210.78
2023-02-01T10:31:46.556Z,101203.03
2023-02-01T10:34:22.622Z,101210.53
2023-02-01T10:36:57.811Z,101215.59
2023-02-01T10:39:26.664Z,101197.53
2023-02-01T10:41:57.244Z,101209.69
2023-02-01T10:44:30.843Z,101193.34
2023-02-01T10:46:59.177Z,101208.53
2023-02-01T10:49:35.912Z,101206.78
2023-02-01T10:52:13.728Z,101199.03
2023-02-01T10:54:43.025Z,101197.84
2023-02-01T10:57:12.973Z,101200.94
2023-02-01T10:59:44.916Z,101232.81
2023-02-01T11:02:22.697Z,101229.50
2023-02-01T11:04:52.317Z,101225.53
2023-02-01T11:07:26.712Z,101210.31
2023-02-01T11:09:57.444Z,101242.78
2023-02-01T11:12:33.249Z,101257.84
2023-02-01T11:15:17.505Z,101213.94
2023-02-01T11:17:47.941Z,101215.03
2023-02-01T11:20:20.478Z,101199.56
2023-02-01T11:22:50.427Z,101223.38
2023-02-01T11:25:20.211Z,101225.09
2023-02-01T11:27:55.243Z,101202.22
2023-02-01T11:30:34.335Z,101191.13
2023-02-01T11:33:06.757Z,101221.50
2023-02-01T11:35:41.237Z,101215.75
2023-02-01T11:38:23.961Z,101242.94
2023-02-01T11:40:53.502Z,101243.66
2023-02-01T11:43:29.433Z,101247.03
2023-02-01T11:46:02.673Z,101235.25
2023-02-01T11:48:32.710Z,101220.09
2023-02-01T11:51:24.118Z,101262.78
2023-02-01T11:54:11.183Z,101254.50
2023-02-01T11:56:47.787Z,101225.63
2023-02-01T11:59:34.040Z,101232.28
2023-02-01T12:02:40.993Z,101249.97
2023-02-01T12:05:37.876Z,101238.84
2023-02-01T12:08:29.103Z,101245.09
2023-02-01T12:11:12.015Z,101235.38
2023-02-01T12:13:55.808Z,101236.28
2023-02-01T12:16:35.295Z,101250.47
2023-02-01T12:19:29.561Z,101241.84
2023-02-01T12:22:04.037Z,101242.22
2023-02-01T12:25:12.041Z,101219.38
2023-02-01T12:27:55.852Z,101225.72
2023-02-01T12:30:57.878Z,101220.69
2023-02-01T12:33:42.706Z,101216.47
2023-02-01T12:36:27.528Z,101239.63
2023-02-01T12:39:05.572Z,101218.44
2023-02-01T12:41:52.082Z,101248.38
2023-02-01T12:44:30.164Z,101215.63
2023-02-01T12:47:01.628Z,101220.34
2023-02-01T12:49:40.849Z,101224.22
2023-02-01T12:52:16.154Z,101234.09
2023-02-01T12:54:49.536Z,101233.19
2023-02-01T12:57:23.866Z,101236.38
2023-02-01T12:59:58.961Z,101227.75
2023-02-01T13:02:34.557Z,101246.81
2023-02-01T13:05:14.234Z,101241.88
2023-02-01T13:07:49.266Z,101231.16
2023-02-01T13:10:24.673Z,101234.44
2023-02-01T13:13:00.939Z,101231.75
2023-02-01T13:15:34.127Z,101250.47
2023-02-01T13:18:07.951Z,101230.69
2023-02-01T13:20:43.993Z,101255.41
2023-02-01T13:23:20.918Z,101238.81
2023-02-01T13:25:51.188Z,101246.88
2023-02-01T13:28:25.925Z,101249.66
2023-02-01T13:31:13.083Z,101245.06
2023-02-01T13:34:02.354Z,101240.66
2023-02-01T13:36:54.769Z,101249.56
2023-02-01T13:39:59.288Z,101252.84
2023-02-01T13:42:32.438Z,101264.47
2023-02-01T13:45:05.515Z,101262.09
2023-02-01T13:47:43.147Z,101270.84
2023-02-01T13:50:22.668Z,101272.34
2023-02-01T13:52:57.511Z,101273.25
2023-02-01T13:55:30.392Z,101269.72
2023-02-01T13:58:15.833Z,101264.63
2023-02-01T14:00:45.697Z,101271.66
2023-02-01T14:03:20.530Z,101269.63
2023-02-01T14:06:10.833Z,101270.13
2023-02-01T14:08:43.430Z,101269.94
2023-02-01T14:11:43.701Z,101277.72
2023-02-01T14:14:47.064Z,101301.38
2023-02-01T14:17:40.009Z,101284.09
2023-02-01T14:20:41.838Z,101285.66
2023-02-01T14:23:16.908Z,101293.13
2023-02-01T14:25:59.087Z,101274.75
2023-02-01T14:28:31.483Z,101273.56
2023-02-01T14:31:01.804Z,101275.69
2023-02-01T14:33:30.712Z,101291.16
2023-02-01T14:36:10.344Z,101284.41
2023-02-01T14:38:40.927Z,101293.75
2023-02-01T14:41:31.509Z,101298.47
2023-02-01T14:44:27.910Z,101303.66
2023-02-01T14:47:14.458Z,101310.06
2023-02-01T14:49:52.249Z,101309.00
2023-02-01T14:52:24.609Z,101302.88
2023-02-01T14:54:58.513Z,101316.94
2023-02-01T14:57:30.491Z,101318.59
2023-02-01T15:00:07.914Z,101307.44
2023-02-01T15:02:41.600Z,101312.72
2023-02-01T15:05:23.104Z,101312.19
2023-02-01T15:07:52.596Z,101322.88
2023-02-01T15:10:24.556Z,101320.16
2023-02-01T15:12:54.390Z,101324.84
2023-02-01T15:15:25.672Z,101317.75
2023-02-01T15:17:58.645Z,101343.41
2023-02-01T15:20:29.644Z,101318.44
2023-02-01T15:23:02.805Z,101324.84
2023-02-01T15:25:34.256Z,101335.59
2023-02-01T15:28:03.305Z,101343.53
2023-02-01T15:30:35.823Z,101338.03
2023-02-01T15:33:17.574Z,101358.47
2023-02-01T15:35:48.794Z,101350.78
2023-02-01T15:38:34.807Z,101351.25
2023-02-01T15:41:09.075Z,101385.03
2023-02-01T15:43:41.727Z,101352.53
2023-02-01T15:46:14.143Z,101353.75
2023-02-01T15:48:48.646Z,101364.13
2023-02-01T15:51:20.149Z,101360.56
2023-02-01T15:53:55.583Z,101378.88
2023-02-01T15:56:29.504Z,101371.25
2023-02-01T15:59:01.533Z,101356.78
2023-02-01T16:01:30.921Z,101366.25
2023-02-01T16:04:17.748Z,101364.78
2023-02-01T16:06:52.212Z,101357.69
2023-02-01T16:09:22.759Z,101378.47
2023-02-01T16:11:57.109Z,101399.84
2023-02-01T16:14:26.945Z,101392.88
2023-02-01T16:17:00.194Z,101397.72
2023-02-01T16:19:30.150Z,101410.63
2023-02-01T16:21:59.271Z,101404.19
2023-02-01T16:24:28.836Z,101403.34
2023-02-01T16:26:57.408Z,101410.47
2023-02-01T16:29:25.825Z,101409.50
2023-02-01T16:31:54.541Z,101414.88
2023-02-01T16:34:22.800Z,101430.44
2023-02-01T16:36:54.542Z,101417.91
2023-02-01T16:39:23.659Z,101425.00
2023-02-01T16:41:52.710Z,101429.28
2023-02-01T16:44:21.230Z,101417.94
2023-02-01T16:46:51.100Z,101422.84
2023-02-01T16:49:22.263Z,101432.06
2023-02-01T16:51:54.869Z,101435.47
2023-02-01T16:54:24.224Z,101445.28
2023-02-01T16:56:52.949Z,101455.34
2023-02-01T16:59:21.443Z,101450.25
2023-02-01T17:01:50.878Z,101456.06
2023-02-01T17:04:21.891Z,101458.38
2023-02-01T17:06:52.038Z,101451.84
2023-02-01T17:09:21.826Z,101469.69
2023-02-01T17:11:50.191Z,101479.06
2023-02-01T17:14:20.175Z,101478.34
2023-02-01T17:16:51.263Z,101464.00
2023-02-01T17:19:24.613Z,101469.63
2023-02-01T17:21:59.867Z,101464.47
2023-02-01T17:24:46.462Z,101464.09
2023-02-01T17:27:17.453Z,101468.84
2023-02-01T17:29:47.414Z,101485.44
2023-02-01T17:32:21.617Z,101471.28
2023-02-01T17:34:50.784Z,101477.97
2023-02-01T17:37:26.901Z,101479.72
2023-02-01T17:39:58.198Z,101479.47
2023-02-01T17:42:27.824Z,101494.59
2023-02-01T17:44:59.079Z,101494.41
2023-02-01T17:47:27.341Z,101489.66
2023-02-01T17:49:57.433Z,101501.13
2023-02-01T17:52:29.322Z,101522.28
2023-02-01T17:54:57.589Z,101512.13
2023-02-01T17:57:25.818Z,101511.78
2023-02-01T17:59:54.097Z,101507.28
2023-02-01T18:02:25.998Z,101517.47
2023-02-01T18:04:54.100Z,101512.44
2023-02-01T18:07:22.486Z,101520.69
2023-02-01T18:09:52.585Z,101507.13
2023-02-01T18:12:23.718Z,101520.78
2023-02-01T18:14:52.212Z,101520.69
2023-02-01T18:17:20.641Z,101530.91
2023-02-01T18:19:48.714Z,101522.69
2023-02-01T18:22:20.236Z,101523.94
2023-02-01T18:24:48.193Z,101519.41
2023-02-01T18:27:17.687Z,101512.09
2023-02-01T18:29:45.659Z,101517.22
2023-02-01T18:32:13.768Z,101527.09
2023-02-01T18:34:41.933Z,101523.41
2023-02-01T18:37:10.313Z,101531.03
2023-02-01T18:39:39.968Z,101537.69
2023-02-01T18:42:12.092Z,101533.78
2023-02-01T18:44:42.060Z,101527.13
2023-02-01T18:47:10.812Z,101529.56
2023-02-01T18:49:39.324Z,101531.88
2023-02-01T18:52:07.633Z,101554.53
2023-02-01T18:54:35.589Z,101527.09
2023-02-01T18:57:04.595Z,101529.03
2023-02-01T18:59:32.845Z,101533.81
2023-02-01T19:02:04.294Z,101531.59
2023-02-01T19:04:32.443Z,101533.81
2023-02-01T19:07:01.609Z,101530.81
2023-02-01T19:09:32.466Z,101539.41
2023-02-01T19:12:00.888Z,101528.56
2023-02-01T19:14:29.532Z,101539.06
2023-02-01T19:16:58.359Z,101538.59
2023-02-01T19:20:43.794Z,101543.50
2023-02-01T19:23:13.610Z,101552.50
2023-02-01T19:25:46.175Z,101548.34
2023-02-01T19:28:14.626Z,101555.47
2023-02-01T19:30:44.880Z,101543.41
2023-02-01T19:33:13.940Z,101543.91
2023-02-01T19:35:42.399Z,101551.31
2023-02-01T19:38:11.394Z,101555.47
2023-02-01T19:40:42.140Z,101550.56
2023-02-01T19:43:10.333Z,101554.25
2023-02-01T19:45:38.484Z,101544.28
2023-02-01T19:48:07.880Z,101549.19
2023-02-01T19:50:36.213Z,101550.91
2023-02-01T19:53:05.064Z,101561.72
2023-02-01T19:55:35.635Z,101555.81
2023-02-01T19:58:06.971Z,101564.34
2023-02-01T20:00:35.991Z,101553.88
2023-02-01T20:03:05.013Z,101566.41
2023-02-01T20:05:34.576Z,101562.00
2023-02-01T20:08:03.470Z,101580.56
2023-02-01T20:10:31.670Z,101573.19
2023-02-01T20:12:59.833Z,101570.84
2023-02-01T20:15:29.378Z,101577.72
2023-02-01T20:17:57.624Z,101578.84
2023-02-01T20:20:26.329Z,101590.06
2023-02-01T20:22:54.745Z,101584.13
2023-02-01T20:25:23.346Z,101594.34
2023-02-01T20:27:52.725Z,101599.66
2023-02-01T20:30:21.771Z,101606.66
2023-02-01T20:32:53.137Z,101602.47
2023-02-01T20:35:22.424Z,101595.72
2023-02-01T20:37:51.885Z,101598.91
2023-02-01T20:40:21.460Z,101602.47
2023-02-01T20:42:49.644Z,101608.75
2023-02-01T20:45:18.969Z,101598.16
2023-02-01T20:47:52.693Z,101607.41
2023-02-01T20:50:21.017Z,101611.56
2023-02-01T20:52:49.855Z,101604.31
2023-02-01T20:55:18.866Z,101605.78
2023-02-01T20:57:47.058Z,101609.97
2023-02-01T21:00:16.080Z,101609.25
2023-02-01T21:02:44.527Z,101610.97
2023-02-01T21:05:14.848Z,101614.16
2023-02-01T21:07:43.687Z,101624.00
2023-02-01T21:10:12.996Z,101623.53
2023-02-01T21:12:41.373Z,101627.72
2023-02-01T21:15:10.823Z,101629.44
2023-02-01T21:17:40.078Z,101630.44
2023-02-01T21:20:10.053Z,101636.09
2023-02-01T21:22:39.868Z,101627.47
2023-02-01T21:25:09.949Z,101623.78
2023-02-01T21:27:38.437Z,101631.41
2023-02-01T21:30:08.358Z,101621.19
2023-02-01T21:32:36.887Z,101624.19
2023-02-01T21:35:06.792Z,101638.78
2023-02-01T21:37:35.925Z,101623.53
2023-02-01T21:40:06.544Z,101638.56
2023-02-01T21:42:34.676Z,101632.78
2023-02-01T21:45:04.249Z,101648.28
2023-02-01T21:47:33.298Z,101642.63
2023-02-01T21:50:02.563Z,101644.84
2023-02-01T21:52:33.146Z,101652.59
2023-02-01T21:55:01.500Z,101663.03
2023-02-01T21:57:31.047Z,101666.50
2023-02-01T21:59:59.371Z,101662.09
2023-02-01T22:02:28.677Z,101674.44
2023-02-01T22:04:58.607Z,101659.16
2023-02-01T22:07:26.618Z,101670.09
2023-02-01T22:09:54.764Z,101666.25
2023-02-01T22:12:23.920Z,101680.78
2023-02-01T22:14:53.503Z,101678.06
2023-02-01T22:17:21.768Z,101675.34
2023-02-01T22:19:50.281Z,101681.88
2023-02-01T22:22:18.452Z,101686.09
2023-02-01T22:24:46.377Z,101685.94
2023-02-01T22:27:14.820Z,101696.03
2023-02-01T22:29:44.545Z,101702.59
2023-02-01T22:32:14.541Z,101697.53
2023-02-01T22:34:43.030Z,101698.13
2023-02-01T22:37:12.072Z,101696.03
2023-02-01T22:39:41.216Z,101696.28
2023-02-01T22:42:09.324Z,101705.88
2023-02-01T22:44:39.038Z,101690.63
2023-02-01T22:47:07.695Z,101700.22
2023-02-01T22:49:37.183Z,101704.78
2023-02-01T22:52:07.872Z,101702.44
2023-02-01T22:54:36.259Z,101713.53
2023-02-01T22:57:04.712Z,101725.34
2023-02-01T22:59:33.323Z,101718.34
2023-02-01T23:02:01.316Z,101715.00
2023-02-01T23:04:29.351Z,101720.06
2023-02-01T23:06:59.942Z,101716.75
2023-02-01T23:09:28.058Z,101721.31
2023-02-01T23:11:56.312Z,101720.91
2023-02-01T23:14:24.710Z,101725.28
2023-02-01T23:16:53.061Z,101728.31
2023-02-01T23:19:21.902Z,101737.44
2023-02-01T23:21:50.472Z,101729.53
2023-02-01T23:24:20.091Z,101727.13
2023-02-01T23:26:48.118Z,101729.59
2023-02-01T23:29:19.201Z,101738.66
2023-02-01T23:31:47.202Z,101736.41
2023-02-01T23:34:15.580Z,101736.28
2023-02-01T23:36:44.895Z,101737.34
2023-02-01T23:39:13.209Z,101737.81
2023-02-01T23:41:42.711Z,101741.19
2023-02-01T23:44:11.499Z,101747.63
2023-02-01T23:46:41.214Z,101754.72
2023-02-01T23:49:10.506Z,101749.41
2023-02-01T23:51:39.076Z,101751.88
2023-02-01T23:54:08.250Z,101760.03
2023-02-01T23:56:38.847Z,101757.69
2023-02-01T23:59:11.179Z,101759.28
